createdAt,value
2023-03-16T00:01:00.605Z,1263.7
2023-03-16T00:02:44.307Z,1263.2
2023-03-16T00:04:28.003Z,1265.5
2023-03-16T00:06:11.721Z,1265.7
2023-03-16T00:07:55.407Z,1264.7
2023-03-16T00:09:39.108Z,1265.1
2023-03-16T00:11:22.832Z,1264.2
2023-03-16T00:13:06.530Z,1265.4
2023-03-16T00:14:50.226Z,1262.2
2023-03-16T00:16:33.914Z,1258
2023-03-16T00:18:17.625Z,1255.9
2023-03-16T00:20:01.330Z,1264.2
2023-03-16T00:21:45.024Z,1296.8
2023-03-16T00:23:28.755Z,1299.9
2023-03-16T00:25:12.459Z,1294.4
2023-03-16T00:26:56.129Z,1293.2
2023-03-16T00:28:39.831Z,1295.9
2023-03-16T00:30:23.546Z,1298.3
2023-03-16T00:32:07.233Z,1295.4
2023-03-16T00:33:50.943Z,1291.1
2023-03-16T00:35:34.632Z,1283.6
2023-03-16T00:37:18.341Z,1281.4
2023-03-16T00:39:02.104Z,1277.1
2023-03-16T00:40:45.751Z,1274.9
2023-03-16T00:42:29.459Z,1271.9
2023-03-16T00:44:13.142Z,1273.6
2023-03-16T00:45:56.857Z,1277.9
2023-03-16T00:47:40.596Z,1272.9
2023-03-16T00:49:24.257Z,1270.5
2023-03-16T00:51:07.966Z,1267.4
2023-03-16T00:52:51.687Z,1266.9
2023-03-16T00:54:35.438Z,1262.6
2023-03-16T00:56:19.070Z,1260.2
2023-03-16T00:58:02.865Z,1255.6
2023-03-16T00:59:46.480Z,1256.2
2023-03-16T01:01:30.183Z,1255.1
2023-03-16T01:03:13.891Z,1300.1
2023-03-16T01:04:57.644Z,1329.8
2023-03-16T01:06:41.283Z,1319.3
2023-03-16T01:08:24.986Z,1298.7
2023-03-16T01:10:08.746Z,1285.5
2023-03-16T01:11:52.411Z,1282.2
2023-03-16T01:13:36.091Z,1283
2023-03-16T01:15:19.828Z,1285
2023-03-16T01:17:03.531Z,1287.3
2023-03-16T01:18:47.252Z,1287.1
2023-03-16T01:20:30.907Z,1286.3
2023-03-16T01:22:14.605Z,1286.2
2023-03-16T01:23:58.315Z,1287.2
2023-03-16T01:25:42.011Z,1287
2023-03-16T01:27:25.710Z,1287.8
2023-03-16T01:29:09.418Z,1284.4
2023-03-16T01:30:53.125Z,1280.5
2023-03-16T01:32:36.821Z,1274.3
2023-03-16T01:34:20.542Z,1271.4
2023-03-16T01:36:04.227Z,1271.8
2023-03-16T01:37:47.943Z,1271.9
2023-03-16T01:39:31.654Z,1271.3
2023-03-16T01:41:15.334Z,1266.8
2023-03-16T01:42:59.039Z,1264.5
2023-03-16T01:44:42.762Z,1261.5
2023-03-16T01:46:26.451Z,1259.1
2023-03-16T01:48:10.144Z,1256.7
2023-03-16T01:49:53.845Z,1257.3
2023-03-16T01:51:37.550Z,1262.7
2023-03-16T01:53:21.267Z,1262.2
2023-03-16T01:55:04.955Z,1259.5
2023-03-16T01:56:48.675Z,1258.3
2023-03-16T01:58:32.365Z,1259.2
2023-03-16T02:00:16.067Z,1256.6
2023-03-16T02:01:59.815Z,1257.4
2023-03-16T02:03:43.486Z,1255.9
2023-03-16T02:05:27.185Z,1254.9
2023-03-16T02:07:10.886Z,1249.4
2023-03-16T02:08:54.581Z,1249.7
2023-03-16T02:10:38.296Z,1248.1
2023-03-16T02:12:21.984Z,1246.2
2023-03-16T02:14:05.680Z,1246.6
2023-03-16T02:15:49.386Z,1245.9
2023-03-16T02:17:33.093Z,1246.5
2023-03-16T02:19:16.811Z,1250.3
2023-03-16T02:21:00.496Z,1246.2
2023-03-16T02:22:44.212Z,1247.7
2023-03-16T02:24:27.902Z,1248.2
2023-03-16T02:26:11.605Z,1245.9
2023-03-16T02:27:55.304Z,1245.6
2023-03-16T02:29:39.005Z,1241.6
2023-03-16T02:31:22.716Z,1236.1
2023-03-16T02:33:06.430Z,1234.1
2023-03-16T02:34:50.123Z,1237.5
2023-03-16T02:36:33.815Z,1236.5
2023-03-16T02:38:17.519Z,1231.2
2023-03-16T02:40:01.297Z,1231.4
2023-03-16T02:41:44.931Z,1229
2023-03-16T02:43:28.622Z,1228.3
2023-03-16T02:45:12.333Z,1227
2023-03-16T02:46:56.032Z,1231.3
2023-03-16T02:48:39.734Z,1233.6
2023-03-16T02:50:23.425Z,1230.2
2023-03-16T02:52:07.135Z,1231.3
2023-03-16T02:53:50.842Z,1231.2
2023-03-16T02:55:34.539Z,1228.2
2023-03-16T02:57:18.244Z,1229.3
2023-03-16T02:59:01.972Z,1226.4
2023-03-16T03:00:45.660Z,1225.2
2023-03-16T03:02:29.367Z,1224.8
2023-03-16T03:04:13.062Z,1225.3
2023-03-16T03:05:56.766Z,1226.8
2023-03-16T03:07:40.465Z,1225.1
2023-03-16T03:09:24.161Z,1224.9
2023-03-16T03:11:07.867Z,1225.3
2023-03-16T03:12:51.571Z,1224.3
2023-03-16T03:14:35.347Z,1220.5
2023-03-16T03:16:18.981Z,1219.4
2023-03-16T03:18:02.679Z,1217.9
2023-03-16T03:19:46.412Z,1217.2
2023-03-16T03:23:13.780Z,1220
2023-03-16T03:24:57.486Z,1220.9
2023-03-16T03:26:41.190Z,1217.9
2023-03-16T03:28:24.899Z,1218.9
2023-03-16T03:30:08.606Z,1214.3
2023-03-16T03:31:52.300Z,1212.1
2023-03-16T03:33:35.999Z,1210.6
2023-03-16T03:35:19.715Z,1210.9
2023-03-16T03:37:03.433Z,1215.5
2023-03-16T03:38:47.143Z,1217.9
2023-03-16T03:40:30.817Z,1217.3
2023-03-16T03:42:14.516Z,1210.2
2023-03-16T03:43:58.209Z,1206.8
2023-03-16T03:45:41.925Z,1206.3
2023-03-16T03:47:25.622Z,1206.6
2023-03-16T03:49:09.343Z,1208.3
2023-03-16T03:50:53.029Z,1206
2023-03-16T03:52:36.739Z,1204.9
2023-03-16T03:54:20.443Z,1202.1
2023-03-16T03:56:04.138Z,1203.1
2023-03-16T03:57:47.849Z,1207.1
2023-03-16T03:59:31.551Z,1209.1
2023-03-16T04:01:15.254Z,1207.7
2023-03-16T04:02:58.945Z,1215.4
2023-03-16T04:04:42.653Z,1221.6
2023-03-16T04:06:26.358Z,1207.9
2023-03-16T04:08:10.058Z,1210.9
2023-03-16T04:09:53.776Z,1206.5
2023-03-16T04:11:37.462Z,1207.8
2023-03-16T04:13:21.155Z,1206.8
2023-03-16T04:15:04.869Z,1205.2
2023-03-16T04:16:48.578Z,1207.3
2023-03-16T04:18:32.281Z,1206.6
2023-03-16T04:20:15.972Z,1206.8
2023-03-16T04:21:59.678Z,1202
2023-03-16T04:23:43.375Z,1206.1
2023-03-16T04:25:27.090Z,1210.4
2023-03-16T04:27:10.779Z,1210.5
2023-03-16T04:28:54.478Z,1208.8
2023-03-16T04:30:38.190Z,1206
2023-03-16T04:32:21.911Z,1202.1
2023-03-16T04:34:05.594Z,1204.2
2023-03-16T04:35:49.302Z,1203.8
2023-03-16T04:37:32.995Z,1206.8
2023-03-16T04:39:16.693Z,1207.2
2023-03-16T04:41:00.399Z,1204.5
2023-03-16T04:42:44.127Z,1200.5
2023-03-16T04:44:27.812Z,1200.3
2023-03-16T04:46:11.505Z,1200.5
2023-03-16T04:47:55.205Z,1198.2
2023-03-16T04:49:38.925Z,1195
2023-03-16T04:51:22.641Z,1193.9
2023-03-16T04:53:06.328Z,1195.2
2023-03-16T04:54:50.019Z,1194.5
2023-03-16T04:56:33.733Z,1200.5
2023-03-16T04:58:17.433Z,1204
2023-03-16T05:00:01.134Z,1205.2
2023-03-16T05:01:44.843Z,1206.1
2023-03-16T05:03:28.538Z,1208
2023-03-16T05:05:12.241Z,1205.8
2023-03-16T05:06:55.941Z,1200.5
2023-03-16T05:08:39.647Z,1201.1
2023-03-16T05:10:23.368Z,1204
2023-03-16T05:12:07.059Z,1205.6
2023-03-16T05:13:50.755Z,1202.1
2023-03-16T05:15:34.461Z,1199
2023-03-16T05:17:18.168Z,1200.5
2023-03-16T05:19:01.865Z,1207.7
2023-03-16T05:20:45.571Z,1215.1
2023-03-16T05:22:29.271Z,1215
2023-03-16T05:24:12.989Z,1212
2023-03-16T05:25:56.671Z,1214
2023-03-16T05:27:40.383Z,1214.8
2023-03-16T05:29:24.100Z,1216.8
2023-03-16T05:31:07.792Z,1217.3
2023-03-16T05:32:51.477Z,1212.9
2023-03-16T05:34:35.179Z,1213.2
2023-03-16T05:36:18.889Z,1214.5
2023-03-16T05:38:02.589Z,1209.9
2023-03-16T05:41:29.999Z,1204.8
2023-03-16T05:43:13.698Z,1204.6
2023-03-16T05:44:57.405Z,1206.5
2023-03-16T05:46:41.099Z,1207.5
2023-03-16T05:48:24.808Z,1206.9
2023-03-16T05:50:08.516Z,1206.9
2023-03-16T05:51:52.219Z,1206
2023-03-16T05:53:35.915Z,1205.6
2023-03-16T05:55:19.623Z,1205.9
2023-03-16T05:57:03.324Z,1208.7
2023-03-16T05:58:47.044Z,1207.4
2023-03-16T06:00:30.723Z,1208.6
2023-03-16T06:02:14.422Z,1399.8
2023-03-16T06:03:58.140Z,1417.5
2023-03-16T06:05:41.922Z,1400.4
2023-03-16T06:07:25.538Z,1505.8
2023-03-16T06:09:09.247Z,1666
2023-03-16T06:10:52.952Z,1633.8
2023-03-16T06:12:36.655Z,1609.2
2023-03-16T06:14:20.347Z,1586.1
2023-03-16T06:16:04.073Z,1538.7
2023-03-16T06:17:47.777Z,1476.8
2023-03-16T06:19:31.476Z,1490
2023-03-16T06:21:15.168Z,1484
2023-03-16T06:22:58.866Z,1475.4
2023-03-16T06:24:42.559Z,1468.1
2023-03-16T06:26:26.267Z,1465.3
2023-03-16T06:28:09.967Z,1458.3
2023-03-16T06:29:53.838Z,1437.1
2023-03-16T06:31:37.430Z,1431.9
2023-03-16T06:33:21.157Z,1429.9
2023-03-16T06:35:04.789Z,1432.9
2023-03-16T06:36:48.498Z,1434
2023-03-16T06:38:32.253Z,1428.3
2023-03-16T06:40:15.898Z,1434
2023-03-16T06:41:59.660Z,1432.2
2023-03-16T06:43:43.323Z,1436.1
2023-03-16T06:45:27.163Z,1441.3
2023-03-16T06:47:10.698Z,1454.8
2023-03-16T06:48:54.413Z,1565.2
2023-03-16T06:50:38.113Z,1554.7
2023-03-16T06:52:21.807Z,1565.5
2023-03-16T06:54:05.509Z,1559.9
2023-03-16T06:55:49.245Z,1550.9
2023-03-16T06:57:32.927Z,1548.5
2023-03-16T06:59:16.696Z,1548.1
2023-03-16T07:01:00.321Z,1548.4
2023-03-16T07:02:44.033Z,1546.4
2023-03-16T07:04:27.731Z,1546.7
2023-03-16T07:06:11.498Z,1545.1
2023-03-16T07:07:55.184Z,1538.8
2023-03-16T07:09:38.836Z,1535.2
2023-03-16T07:11:22.577Z,1532.8
2023-03-16T07:13:06.309Z,1534.3
2023-03-16T07:14:49.959Z,1534.6
2023-03-16T07:16:33.654Z,1536
2023-03-16T07:18:17.382Z,1536
2023-03-16T07:20:01.045Z,1537.6
2023-03-16T07:21:44.822Z,1530.1
2023-03-16T07:23:28.457Z,1527.3
2023-03-16T07:25:12.148Z,1526.9
2023-03-16T07:26:55.870Z,1522.8
2023-03-16T07:28:39.606Z,1521.4
2023-03-16T07:30:23.267Z,1515.6
2023-03-16T07:32:07.000Z,1512.7
2023-03-16T07:33:50.713Z,1510.4
2023-03-16T07:35:34.403Z,1509.7
2023-03-16T07:37:18.200Z,1506.7
2023-03-16T07:39:01.769Z,1505.1
2023-03-16T07:40:45.593Z,1502
2023-03-16T07:42:29.223Z,1498.3
2023-03-16T07:44:12.891Z,1493.1
2023-03-16T07:45:56.608Z,1491.2
2023-03-16T07:47:40.327Z,1492.3
2023-03-16T07:49:24.000Z,1489.9
2023-03-16T07:51:07.759Z,1486.2
2023-03-16T07:52:51.400Z,1482.3
2023-03-16T07:54:35.107Z,1495.5
2023-03-16T07:56:18.829Z,1511
2023-03-16T07:58:02.521Z,1516.9
2023-03-16T07:59:46.213Z,1497.4
2023-03-16T08:01:29.924Z,1487.6
2023-03-16T08:03:13.661Z,1484.1
2023-03-16T08:04:57.355Z,1485.7
2023-03-16T08:06:41.040Z,1484
2023-03-16T08:08:24.738Z,1487.9
2023-03-16T08:10:08.465Z,1486.5
2023-03-16T08:11:52.135Z,1483
2023-03-16T08:13:35.833Z,1483.8
2023-03-16T08:15:19.597Z,1481.9
2023-03-16T08:17:03.279Z,1474.5
2023-03-16T08:18:47.093Z,1474.3
2023-03-16T08:20:30.651Z,1477.4
2023-03-16T08:22:14.355Z,1476.9
2023-03-16T08:23:58.099Z,1471.6
2023-03-16T08:25:41.929Z,1468
2023-03-16T08:27:25.468Z,1476
2023-03-16T08:29:09.182Z,1474.2
2023-03-16T08:30:52.872Z,1474.9
2023-03-16T08:32:36.579Z,1474.1
2023-03-16T08:34:20.417Z,1472.7
2023-03-16T08:36:04.051Z,1470.2
2023-03-16T08:37:47.819Z,1468.8
2023-03-16T08:39:31.463Z,1465.4
2023-03-16T08:41:15.251Z,1461.8
2023-03-16T08:42:58.792Z,1456.1
2023-03-16T08:44:42.491Z,1448.6
2023-03-16T08:46:26.256Z,1446.1
2023-03-16T08:48:09.910Z,1447.4
2023-03-16T08:49:53.587Z,1441.4
2023-03-16T08:51:37.289Z,1441.2
2023-03-16T08:53:21.055Z,1443.4
2023-03-16T08:55:04.728Z,1441.4
2023-03-16T08:56:48.430Z,1440.9
2023-03-16T08:58:32.102Z,1439.7
2023-03-16T09:00:15.915Z,1436.7
2023-03-16T09:01:59.621Z,1433.3
2023-03-16T09:03:43.199Z,1424.4
2023-03-16T09:05:26.917Z,1416.8
2023-03-16T09:07:10.645Z,1415.7
2023-03-16T09:08:54.311Z,1411.6
2023-03-16T09:10:38.022Z,1406.8
2023-03-16T09:12:21.762Z,1404.6
2023-03-16T09:14:05.502Z,1402.6
2023-03-16T09:15:49.130Z,1401.8
2023-03-16T09:17:32.858Z,1400.6
2023-03-16T09:19:16.584Z,1400.8
2023-03-16T09:21:00.249Z,1410.4
2023-03-16T09:22:43.965Z,1414.2
2023-03-16T09:24:27.825Z,1420.8
2023-03-16T09:26:11.449Z,1405.1
2023-03-16T09:27:55.065Z,1387.6
2023-03-16T09:29:38.915Z,1376.3
2023-03-16T09:31:22.619Z,1371.3
2023-03-16T09:33:06.301Z,1368.1
2023-03-16T09:34:50.056Z,1363.1
2023-03-16T09:36:33.770Z,1355
2023-03-16T09:38:17.413Z,1355.4
2023-03-16T09:40:01.147Z,1361.4
2023-03-16T09:41:44.788Z,1350.3
2023-03-16T09:43:28.570Z,1349.1
2023-03-16T09:45:12.194Z,1353
2023-03-16T09:46:55.808Z,1351.1
2023-03-16T09:48:39.673Z,1346.8
2023-03-16T09:50:23.195Z,1343.8
2023-03-16T09:52:06.992Z,1339
2023-03-16T09:53:50.724Z,1335.4
2023-03-16T09:55:34.424Z,1331.2
2023-03-16T09:57:18.084Z,1326.3
2023-03-16T09:59:01.880Z,1326.7
2023-03-16T10:00:45.452Z,1319.2
2023-03-16T10:02:29.257Z,1312.9
2023-03-16T10:04:12.929Z,1307.7
2023-03-16T10:05:56.664Z,1299.9
2023-03-16T10:07:40.415Z,1302.2
2023-03-16T10:11:07.706Z,1340.1
2023-03-16T10:12:51.475Z,1344
2023-03-16T10:14:35.145Z,1339.4
2023-03-16T10:16:18.891Z,1329.5
2023-03-16T10:18:02.623Z,1318.8
2023-03-16T10:19:46.150Z,1310.7
2023-03-16T10:21:29.869Z,1312.7
2023-03-16T10:23:13.691Z,1320.6
2023-03-16T10:24:57.310Z,1326.9
2023-03-16T10:26:41.129Z,1323.2
2023-03-16T10:28:24.889Z,1311.9
2023-03-16T10:30:08.339Z,1299.2
2023-03-16T10:31:52.242Z,1292.2
2023-03-16T10:33:35.912Z,1283.1
2023-03-16T10:35:19.443Z,1275
2023-03-16T10:37:03.149Z,1270.9
2023-03-16T10:38:47.000Z,1272.3
2023-03-16T10:40:30.584Z,1271.5
2023-03-16T10:42:14.463Z,1267.8
2023-03-16T10:43:58.157Z,1268.9
2023-03-16T10:45:41.709Z,1267
2023-03-16T10:47:25.506Z,1267
2023-03-16T10:49:09.298Z,1263.6
2023-03-16T10:50:52.980Z,1261.5
2023-03-16T10:52:36.643Z,1253.1
2023-03-16T10:54:20.378Z,1253.2
2023-03-16T10:56:03.886Z,1286.8
2023-03-16T10:57:47.577Z,1289.5
2023-03-16T10:59:31.482Z,1279
2023-03-16T11:01:15.194Z,1275.9
2023-03-16T11:02:58.911Z,1270.6
2023-03-16T11:04:42.602Z,1267.5
2023-03-16T11:06:26.255Z,1270.9
2023-03-16T11:08:09.802Z,1268.7
2023-03-16T11:09:53.648Z,1270.4
2023-03-16T11:11:37.234Z,1269.7
2023-03-16T11:13:21.050Z,1269.9
2023-03-16T11:15:04.605Z,1268.2
2023-03-16T11:16:48.462Z,1270.3
2023-03-16T11:18:32.191Z,1265.9
2023-03-16T11:20:15.720Z,1268.3
2023-03-16T11:21:59.609Z,1282.3
2023-03-16T11:23:43.288Z,1286.4
2023-03-16T11:25:26.829Z,1284.9
2023-03-16T11:27:10.572Z,1285.2
2023-03-16T11:28:54.427Z,1293.3
2023-03-16T11:30:37.942Z,1302
2023-03-16T11:32:21.834Z,1307.3
2023-03-16T11:34:05.503Z,1313.3
2023-03-16T11:35:49.053Z,1314.9
2023-03-16T11:37:32.757Z,1312.8
2023-03-16T11:39:16.643Z,1307
2023-03-16T11:41:00.348Z,1304.4
2023-03-16T11:42:44.081Z,1304.7
2023-03-16T11:44:27.556Z,1313.5
2023-03-16T11:46:11.410Z,1316.8
2023-03-16T11:47:55.145Z,1315.3
2023-03-16T11:49:38.769Z,1315.1
2023-03-16T11:51:22.593Z,1313.4
2023-03-16T11:53:06.250Z,1312.1
2023-03-16T11:54:49.941Z,1308.8
2023-03-16T11:56:33.638Z,1310.4
2023-03-16T11:58:17.344Z,1309.6
2023-03-16T12:00:01.081Z,1315.2
2023-03-16T12:01:44.646Z,1316.6
2023-03-16T12:03:28.277Z,1320.1
2023-03-16T12:05:12.117Z,1311.6
2023-03-16T12:06:55.853Z,1311.4
2023-03-16T12:08:39.647Z,1309.7
2023-03-16T12:10:23.088Z,1299.1
2023-03-16T12:12:06.938Z,1291.3
2023-03-16T12:13:50.651Z,1285.2
2023-03-16T12:15:34.200Z,1279.3
2023-03-16T12:17:17.901Z,1273.9
2023-03-16T12:19:01.783Z,1274.7
2023-03-16T12:20:45.524Z,1272.5
2023-03-16T12:22:29.183Z,1270.7
2023-03-16T12:24:12.853Z,1273.4
2023-03-16T12:25:56.615Z,1276.5
2023-03-16T12:27:40.186Z,1276.2
2023-03-16T12:29:23.821Z,1273
2023-03-16T12:31:07.532Z,1261.9
2023-03-16T12:32:51.318Z,1255.4
2023-03-16T12:34:34.929Z,1251
2023-03-16T12:36:18.626Z,1251.3
2023-03-16T12:38:02.333Z,1246.9
2023-03-16T12:39:46.033Z,1242.4
2023-03-16T12:41:29.737Z,1236.1
2023-03-16T12:43:13.443Z,1233.9
2023-03-16T12:44:57.153Z,1234.1
2023-03-16T12:46:40.897Z,1233.8
2023-03-16T12:48:24.540Z,1235.7
2023-03-16T12:50:08.305Z,1231.7
2023-03-16T12:51:51.999Z,1222.7
2023-03-16T12:53:35.655Z,1214.4
2023-03-16T12:55:19.388Z,1209.7
2023-03-16T12:57:03.199Z,1211.3
2023-03-16T12:58:46.756Z,1208.5
2023-03-16T13:00:30.461Z,1206
2023-03-16T13:02:14.214Z,1197.2
2023-03-16T13:03:58.072Z,1192.5
2023-03-16T13:05:41.574Z,1195
2023-03-16T13:07:25.268Z,1193.6
2023-03-16T13:09:08.982Z,1190.8
2023-03-16T13:10:52.687Z,1189.2
2023-03-16T13:12:36.372Z,1188.3
2023-03-16T13:14:20.082Z,1187.6
2023-03-16T13:16:03.847Z,1187.2
2023-03-16T13:17:47.484Z,1185.7
2023-03-16T13:19:31.188Z,1194
2023-03-16T13:21:14.909Z,1199.7
2023-03-16T13:22:58.632Z,1206.7
2023-03-16T13:24:42.300Z,1215
2023-03-16T13:26:26.092Z,1220.8
2023-03-16T13:28:09.771Z,1212.7
2023-03-16T13:29:53.515Z,1215.4
2023-03-16T13:31:37.146Z,1213.5
2023-03-16T13:33:20.829Z,1211.7
2023-03-16T13:35:04.605Z,1214.1
2023-03-16T13:36:48.234Z,1209.8
2023-03-16T13:38:31.950Z,1213.7
2023-03-16T13:40:15.615Z,1212
2023-03-16T13:41:59.325Z,1208.7
2023-03-16T13:43:43.070Z,1210.2
2023-03-16T13:45:26.726Z,1210.1
2023-03-16T13:47:10.438Z,1208.5
2023-03-16T13:48:54.145Z,1201.9
2023-03-16T13:50:37.836Z,1200.3
2023-03-16T13:52:21.545Z,1203.4
2023-03-16T13:54:05.256Z,1215.8
2023-03-16T13:55:48.949Z,1230.3
2023-03-16T13:57:32.649Z,1235.5
2023-03-16T13:59:16.361Z,1232.7
2023-03-16T14:01:00.059Z,1226.7
2023-03-16T14:02:43.754Z,1219.6
2023-03-16T14:04:27.459Z,1208.2
2023-03-16T14:06:11.176Z,1208.2
2023-03-16T14:07:54.862Z,1202.5
2023-03-16T14:09:38.562Z,1199.4
2023-03-16T14:13:05.998Z,1201.9
2023-03-16T14:14:49.672Z,1204
2023-03-16T14:16:33.374Z,1201.7
2023-03-16T14:18:17.086Z,1205.4
2023-03-16T14:20:00.841Z,1206.3
2023-03-16T14:21:44.515Z,1204.3
2023-03-16T14:23:28.207Z,1205.2
2023-03-16T14:25:11.904Z,1202.9
2023-03-16T14:26:55.590Z,1199.3
2023-03-16T14:28:39.293Z,1197.4
2023-03-16T14:30:23.005Z,1194.2
2023-03-16T14:32:06.789Z,1187.8
2023-03-16T14:33:50.408Z,1182.1
2023-03-16T14:35:34.109Z,1181.5
2023-03-16T14:37:17.797Z,1181.3
2023-03-16T14:39:01.508Z,1179.9
2023-03-16T14:40:45.236Z,1177.3
2023-03-16T14:42:28.933Z,1179
2023-03-16T14:44:12.608Z,1181.5
2023-03-16T14:45:56.322Z,1180.4
2023-03-16T14:47:40.026Z,1182.2
2023-03-16T14:49:23.740Z,1185.5
2023-03-16T14:51:07.436Z,1187.3
2023-03-16T14:52:51.140Z,1193
2023-03-16T14:54:35.207Z,1196.4
2023-03-16T14:56:18.533Z,1193.6
2023-03-16T14:58:02.244Z,1190.5
2023-03-16T14:59:46.035Z,1188
2023-03-16T15:01:29.679Z,1188.5
2023-03-16T15:03:13.596Z,1187.7
2023-03-16T15:04:57.046Z,1180.7
2023-03-16T15:06:40.928Z,1185.4
2023-03-16T15:08:24.529Z,1188.1
2023-03-16T15:10:08.246Z,1187.5
2023-03-16T15:11:51.862Z,1185.9
2023-03-16T15:13:35.566Z,1188.7
2023-03-16T15:15:19.259Z,1186.2
2023-03-16T15:17:03.031Z,1184.4
2023-03-16T15:18:46.672Z,1182.4
2023-03-16T15:20:30.377Z,1182.2
2023-03-16T15:22:14.072Z,1177.7
2023-03-16T15:23:57.798Z,1169.8
2023-03-16T15:25:41.484Z,1163.1
2023-03-16T15:27:25.175Z,1145.2
2023-03-16T15:29:08.939Z,1113.6
2023-03-16T15:30:52.747Z,1098.5
2023-03-16T15:32:36.291Z,1083.3
2023-03-16T15:34:19.998Z,1068.3
2023-03-16T15:36:03.750Z,1043.4
2023-03-16T15:37:47.399Z,1016.7
2023-03-16T15:39:31.128Z,1021.4
2023-03-16T15:41:14.890Z,1029.7
2023-03-16T15:42:58.534Z,1037.2
2023-03-16T15:44:42.209Z,1048.2
2023-03-16T15:46:25.898Z,1045.5
2023-03-16T15:48:09.603Z,1042.5
2023-03-16T15:49:53.315Z,1037.6
2023-03-16T15:51:37.007Z,1016.2
2023-03-16T15:53:20.721Z,1000.4
2023-03-16T15:55:04.422Z,1006.6
2023-03-16T15:56:48.190Z,1017.8
2023-03-16T15:58:31.958Z,1025.3
2023-03-16T16:00:15.625Z,1004.7
2023-03-16T16:01:59.342Z,984.6
2023-03-16T16:03:42.918Z,918.8
2023-03-16T16:05:26.735Z,682.9
2023-03-16T16:07:10.336Z,618.5
2023-03-16T16:08:54.111Z,570.5
2023-03-16T16:10:37.814Z,712.4
2023-03-16T16:12:21.436Z,846.6
2023-03-16T16:14:05.291Z,846.5
2023-03-16T16:15:48.965Z,840.7
2023-03-16T16:17:32.545Z,816.8
2023-03-16T16:19:16.434Z,807.9
2023-03-16T16:21:00.144Z,803.2
2023-03-16T16:22:43.934Z,795.9
2023-03-16T16:24:27.361Z,787.5
2023-03-16T16:26:11.138Z,781.4
2023-03-16T16:27:54.991Z,779.8
2023-03-16T16:29:38.648Z,781.6
2023-03-16T16:31:22.354Z,792.1
2023-03-16T16:33:06.032Z,816
2023-03-16T16:34:49.712Z,814.5
2023-03-16T16:36:33.383Z,814.9
2023-03-16T16:38:17.158Z,816.5
2023-03-16T16:40:00.807Z,816.9
2023-03-16T16:41:44.423Z,820.3
2023-03-16T16:43:28.251Z,818.9
2023-03-16T16:45:11.796Z,816.3
2023-03-16T16:46:55.504Z,810.8
2023-03-16T16:48:39.199Z,808.1
2023-03-16T16:50:22.957Z,806.8
2023-03-16T16:52:06.593Z,811.5
2023-03-16T16:53:50.303Z,816.7
2023-03-16T16:55:34.017Z,816.6
2023-03-16T16:57:17.721Z,816.9
2023-03-16T16:59:01.428Z,814.8
2023-03-16T17:00:45.158Z,814.1
2023-03-16T17:02:28.817Z,815.2
2023-03-16T17:04:12.520Z,817.5
2023-03-16T17:05:56.217Z,818.4
2023-03-16T17:07:39.927Z,821.5
2023-03-16T17:09:23.634Z,820.8
2023-03-16T17:11:07.332Z,820.6
2023-03-16T17:12:51.040Z,819.7
2023-03-16T17:14:34.874Z,816.7
2023-03-16T17:16:18.439Z,811.4
2023-03-16T17:18:02.142Z,807.5
2023-03-16T17:19:45.844Z,811.9
2023-03-16T17:21:29.560Z,815.8
2023-03-16T17:23:13.247Z,816.6
2023-03-16T17:24:57.034Z,816
2023-03-16T17:26:40.650Z,816.1
2023-03-16T17:28:24.368Z,817.9
2023-03-16T17:30:08.098Z,820.9
2023-03-16T17:31:51.761Z,825.4
2023-03-16T17:33:35.468Z,827.1
2023-03-16T17:35:19.160Z,825.9
2023-03-16T17:37:02.909Z,825.2
2023-03-16T17:38:46.567Z,824.3
2023-03-16T17:40:30.271Z,822.4
2023-03-16T17:42:13.982Z,820.6
2023-03-16T17:43:57.703Z,819.4
2023-03-16T17:45:41.407Z,820.6
2023-03-16T17:49:08.781Z,838.2
2023-03-16T17:50:52.518Z,853.1
2023-03-16T17:52:36.261Z,853
2023-03-16T17:54:19.890Z,849.3
2023-03-16T17:56:03.587Z,856.3
2023-03-16T17:57:47.294Z,867.3
2023-03-16T18:01:14.801Z,867.4
2023-03-16T18:02:58.394Z,859.5
2023-03-16T18:04:42.107Z,849.8
2023-03-16T18:06:25.801Z,851.3
2023-03-16T18:08:09.503Z,856.1
2023-03-16T18:09:53.225Z,865.9
2023-03-16T18:11:36.930Z,868.1
2023-03-16T18:13:20.639Z,861.3
2023-03-16T18:15:04.308Z,862
2023-03-16T18:16:48.113Z,875.6
2023-03-16T18:18:31.724Z,869.8
2023-03-16T18:20:15.419Z,836.3
2023-03-16T18:21:59.130Z,840.4
2023-03-16T18:23:42.981Z,840.8
2023-03-16T18:25:26.537Z,841.8
2023-03-16T18:27:10.441Z,843.8
2023-03-16T18:28:53.927Z,845.6
2023-03-16T18:30:37.644Z,851.2
2023-03-16T18:32:21.360Z,850.3
2023-03-16T18:34:05.064Z,849.6
2023-03-16T18:35:48.738Z,848.5
2023-03-16T18:37:32.481Z,852
2023-03-16T18:39:16.154Z,856.8
2023-03-16T18:40:59.928Z,865.9
2023-03-16T18:42:43.558Z,894.9
2023-03-16T18:44:27.295Z,901.1
2023-03-16T18:46:11.007Z,896.5
2023-03-16T18:47:54.688Z,895.9
2023-03-16T18:49:38.380Z,891.9
2023-03-16T18:51:22.071Z,890
2023-03-16T18:53:05.920Z,890
2023-03-16T18:54:49.488Z,891.7
2023-03-16T18:56:33.188Z,894.3
2023-03-16T18:58:16.881Z,894.7
2023-03-16T19:00:00.590Z,892.1
2023-03-16T19:01:44.287Z,892.3
2023-03-16T19:03:27.990Z,894.1
2023-03-16T19:05:11.710Z,894.8
2023-03-16T19:06:55.412Z,895.2
2023-03-16T19:08:39.123Z,893.7
2023-03-16T19:10:22.800Z,895
2023-03-16T19:12:06.551Z,900.5
2023-03-16T19:13:50.213Z,903.2
2023-03-16T19:15:33.921Z,905.9
2023-03-16T19:17:17.616Z,905.4
2023-03-16T19:19:01.338Z,904.3
2023-03-16T19:20:45.007Z,904.7
2023-03-16T19:22:28.704Z,905.1
2023-03-16T19:24:12.404Z,907.3
2023-03-16T19:25:56.117Z,906.3
2023-03-16T19:27:39.837Z,907.3
2023-03-16T19:29:23.519Z,907.6
2023-03-16T19:31:07.238Z,904.4
2023-03-16T19:32:50.926Z,901.1
2023-03-16T19:34:34.627Z,898.5
2023-03-16T19:36:18.331Z,895.1
2023-03-16T19:38:02.052Z,893
2023-03-16T19:39:45.734Z,894.8
2023-03-16T19:41:29.439Z,895.7
2023-03-16T19:43:13.141Z,895.3
2023-03-16T19:44:56.854Z,891.3
2023-03-16T19:46:40.555Z,891.3
2023-03-16T19:48:24.252Z,894.4
2023-03-16T19:50:07.958Z,898.9
2023-03-16T19:51:51.722Z,898.7
2023-03-16T19:53:35.428Z,897.2
2023-03-16T19:55:19.103Z,891.6
2023-03-16T19:57:02.768Z,893.6
2023-03-16T19:58:46.501Z,897.8
2023-03-16T20:00:30.174Z,895.3
2023-03-16T20:02:13.880Z,948.7
2023-03-16T20:03:57.573Z,1099.5
2023-03-16T20:05:41.302Z,1095.4
2023-03-16T20:07:24.983Z,1029.3
2023-03-16T20:09:08.989Z,981.3
2023-03-16T20:10:52.384Z,980.4
2023-03-16T20:12:36.079Z,985.6
2023-03-16T20:14:19.798Z,985.1
2023-03-16T20:16:03.498Z,987.8
2023-03-16T20:17:47.190Z,993
2023-03-16T20:19:30.911Z,991.7
2023-03-16T20:21:14.598Z,986.2
2023-03-16T20:24:42.005Z,999.6
2023-03-16T20:26:25.696Z,1099.3
2023-03-16T20:28:09.464Z,1097.1
2023-03-16T20:29:53.111Z,1085.8
2023-03-16T20:31:36.869Z,1072.8
2023-03-16T20:33:20.507Z,1071.9
2023-03-16T20:35:04.255Z,1070.5
2023-03-16T20:36:47.922Z,1059.8
2023-03-16T20:38:31.631Z,1056.7
2023-03-16T20:40:15.328Z,1057.2
2023-03-16T20:41:59.029Z,1058.1
2023-03-16T20:43:42.732Z,1056.9
2023-03-16T20:45:26.557Z,1057.1
2023-03-16T20:47:10.193Z,1051.8
2023-03-16T20:48:53.836Z,1043.1
2023-03-16T20:50:37.532Z,1037.1
2023-03-16T20:52:21.242Z,1031.6
2023-03-16T20:54:04.994Z,1029
2023-03-16T20:55:48.788Z,1028.2
2023-03-16T20:57:32.455Z,1025.1
2023-03-16T20:59:16.053Z,1022.6
2023-03-16T21:00:59.776Z,1020.1
2023-03-16T21:02:43.449Z,1026.1
2023-03-16T21:04:27.156Z,1029.7
2023-03-16T21:06:10.876Z,1029.1
2023-03-16T21:07:54.630Z,1021.3
2023-03-16T21:09:38.273Z,1017
2023-03-16T21:11:21.981Z,1015.2
2023-03-16T21:13:05.700Z,1019
2023-03-16T21:14:49.375Z,1023.9
2023-03-16T21:16:33.097Z,1021.3
2023-03-16T21:18:16.770Z,1018.7
2023-03-16T21:20:00.498Z,1016.6
2023-03-16T21:21:44.195Z,1016.6
2023-03-16T21:23:27.898Z,1017.3
2023-03-16T21:25:11.613Z,1019
2023-03-16T21:26:55.333Z,1019.8
2023-03-16T21:28:39.051Z,1009
2023-03-16T21:30:22.705Z,1003.1
2023-03-16T21:32:06.405Z,992.7
2023-03-16T21:33:50.194Z,988.8
2023-03-16T21:35:33.956Z,989.7
2023-03-16T21:37:17.558Z,989.6
2023-03-16T21:39:01.290Z,986.5
2023-03-16T21:40:44.940Z,985.6
2023-03-16T21:42:28.650Z,984.7
2023-03-16T21:44:12.345Z,982.7
2023-03-16T21:45:56.131Z,981.7
2023-03-16T21:47:39.737Z,980.3
2023-03-16T21:49:23.554Z,982.6
2023-03-16T21:51:07.203Z,976.2
2023-03-16T21:52:50.856Z,972.5
2023-03-16T21:54:34.661Z,969.7
2023-03-16T21:56:18.327Z,966.8
2023-03-16T21:58:01.944Z,966.4
2023-03-16T21:59:45.650Z,966.5
2023-03-16T22:01:29.355Z,964.5